sensor_id;sensor_type;location;lat;lon;timestamp;pressure;altitude;pressure_sealevel;temperature;humidity
9261;BME280;4667;42.726;23.252;2022-08-03T00:01:02;95230.09;;;19.10;nan
9261;BME280;4667;42.726;23.252;2022-08-03T00:03:29;95233.59;;;19.11;nan
9261;BME280;4667;42.726;23.252;2022-08-03T00:05:55;95235.59;;;18.98;nan
9261;BME280;4667;42.726;23.252;2022-08-03T00:08:22;95234.94;;;18.94;nan
9261;BME280;4667;42.726;23.252;2022-08-03T00:10:50;95237.25;;;18.83;nan
9261;BME280;4667;42.726;23.252;2022-08-03T00:13:17;95228.13;;;18.86;nan
9261;BME280;4667;42.726;23.252;2022-08-03T00:15:44;95229.88;;;18.80;nan
9261;BME280;4667;42.726;23.252;2022-08-03T00:18:12;95235.50;;;18.76;nan
9261;BME280;4667;42.726;23.252;2022-08-03T00:20:39;95227.56;;;18.65;nan
9261;BME280;4667;42.726;23.252;2022-08-03T00:23:05;95237.47;;;18.63;nan
9261;BME280;4667;42.726;23.252;2022-08-03T00:25:33;95230.56;;;18.58;nan
9261;BME280;4667;42.726;23.252;2022-08-03T00:28:00;95234.38;;;18.61;nan
9261;BME280;4667;42.726;23.252;2022-08-03T00:30:27;95232.84;;;18.60;nan
9261;BME280;4667;42.726;23.252;2022-08-03T00:32:54;95236.13;;;18.55;nan
9261;BME280;4667;42.726;23.252;2022-08-03T00:35:22;95236.22;;;18.51;nan
9261;BME280;4667;42.726;23.252;2022-08-03T00:37:49;95238.63;;;18.49;nan
9261;BME280;4667;42.726;23.252;2022-08-03T00:40:17;95232.78;;;18.47;nan
9261;BME280;4667;42.726;23.252;2022-08-03T00:42:52;95230.06;;;18.47;nan
9261;BME280;4667;42.726;23.252;2022-08-03T00:45:21;95239.28;;;18.41;nan
9261;BME280;4667;42.726;23.252;2022-08-03T00:47:48;95233.03;;;18.40;nan
9261;BME280;4667;42.726;23.252;2022-08-03T00:50:17;95233.66;;;18.31;nan
9261;BME280;4667;42.726;23.252;2022-08-03T00:52:45;95235.09;;;18.36;nan
9261;BME280;4667;42.726;23.252;2022-08-03T00:55:12;95233.56;;;18.35;nan
9261;BME280;4667;42.726;23.252;2022-08-03T00:57:41;95241.22;;;18.27;nan
9261;BME280;4667;42.726;23.252;2022-08-03T01:00:10;95241.31;;;18.24;nan
9261;BME280;4667;42.726;23.252;2022-08-03T01:02:38;95237.16;;;18.19;nan
9261;BME280;4667;42.726;23.252;2022-08-03T01:05:05;95240.22;;;18.21;nan
9261;BME280;4667;42.726;23.252;2022-08-03T01:07:40;95236.56;;;18.12;nan
9261;BME280;4667;42.726;23.252;2022-08-03T01:10:15;95230.66;;;18.13;nan
9261;BME280;4667;42.726;23.252;2022-08-03T01:12:50;95234.59;;;18.12;nan
9261;BME280;4667;42.726;23.252;2022-08-03T01:15:24;95236.34;;;18.06;nan
9261;BME280;4667;42.726;23.252;2022-08-03T01:17:54;95232.84;;;18.06;nan
9261;BME280;4667;42.726;23.252;2022-08-03T01:20:24;95232.28;;;17.98;nan
9261;BME280;4667;42.726;23.252;2022-08-03T01:23:09;95233.28;;;18.04;nan
9261;BME280;4667;42.726;23.252;2022-08-03T01:25:49;95227.34;;;18.06;nan
9261;BME280;4667;42.726;23.252;2022-08-03T01:28:42;95227.09;;;17.87;nan
9261;BME280;4667;42.726;23.252;2022-08-03T01:31:17;95225.09;;;17.88;nan
9261;BME280;4667;42.726;23.252;2022-08-03T01:33:51;95223.91;;;17.89;nan
9261;BME280;4667;42.726;23.252;2022-08-03T01:36:21;95226.84;;;17.82;nan
9261;BME280;4667;42.726;23.252;2022-08-03T01:38:52;95230.16;;;17.89;nan
9261;BME280;4667;42.726;23.252;2022-08-03T01:41:23;95237.53;;;17.92;nan
9261;BME280;4667;42.726;23.252;2022-08-03T01:43:52;95235.66;;;17.89;nan
9261;BME280;4667;42.726;23.252;2022-08-03T01:46:22;95233.31;;;17.88;nan
9261;BME280;4667;42.726;23.252;2022-08-03T01:48:50;95236.31;;;17.93;nan
9261;BME280;4667;42.726;23.252;2022-08-03T01:51:19;95228.16;;;17.77;nan
9261;BME280;4667;42.726;23.252;2022-08-03T01:53:47;95230.47;;;17.79;nan
9261;BME280;4667;42.726;23.252;2022-08-03T01:56:17;95229.69;;;17.78;nan
9261;BME280;4667;42.726;23.252;2022-08-03T01:58:47;95231.31;;;17.76;nan
9261;BME280;4667;42.726;23.252;2022-08-03T02:01:15;95229.81;;;17.75;nan
9261;BME280;4667;42.726;23.252;2022-08-03T02:03:45;95233.09;;;17.82;nan
9261;BME280;4667;42.726;23.252;2022-08-03T02:06:13;95231.91;;;17.83;nan
9261;BME280;4667;42.726;23.252;2022-08-03T02:08:42;95228.84;;;17.81;nan
9261;BME280;4667;42.726;23.252;2022-08-03T02:11:11;95239.69;;;17.85;nan
9261;BME280;4667;42.726;23.252;2022-08-03T02:13:38;95235.53;;;17.80;nan
9261;BME280;4667;42.726;23.252;2022-08-03T02:16:06;95232.53;;;17.75;nan
9261;BME280;4667;42.726;23.252;2022-08-03T02:18:34;95226.28;;;17.74;nan
9261;BME280;4667;42.726;23.252;2022-08-03T02:21:06;95229.81;;;17.75;nan
9261;BME280;4667;42.726;23.252;2022-08-03T02:23:34;95230.56;;;17.75;nan
9261;BME280;4667;42.726;23.252;2022-08-03T02:26:03;95235.53;;;17.80;nan
9261;BME280;4667;42.726;23.252;2022-08-03T02:28:36;95241.44;;;17.79;nan
9261;BME280;4667;42.726;23.252;2022-08-03T02:31:08;95230.13;;;17.77;nan
9261;BME280;4667;42.726;23.252;2022-08-03T02:33:41;95229.88;;;17.71;nan
9261;BME280;4667;42.726;23.252;2022-08-03T02:36:10;95226.47;;;17.67;nan
9261;BME280;4667;42.726;23.252;2022-08-03T02:38:42;95228.34;;;17.54;nan
9261;BME280;4667;42.726;23.252;2022-08-03T02:41:14;95224.31;;;17.75;nan
9261;BME280;4667;42.726;23.252;2022-08-03T02:43:43;95222.47;;;17.84;nan
9261;BME280;4667;42.726;23.252;2022-08-03T02:46:12;95217.97;;;17.78;nan
9261;BME280;4667;42.726;23.252;2022-08-03T02:48:40;95215.56;;;17.80;nan
9261;BME280;4667;42.726;23.252;2022-08-03T02:51:10;95216.88;;;17.75;nan
9261;BME280;4667;42.726;23.252;2022-08-03T02:53:38;95226.59;;;17.76;nan
9261;BME280;4667;42.726;23.252;2022-08-03T02:56:08;95225.16;;;17.72;nan
9261;BME280;4667;42.726;23.252;2022-08-03T02:58:36;95227.84;;;17.75;nan
9261;BME280;4667;42.726;23.252;2022-08-03T03:01:04;95228.25;;;17.74;nan
9261;BME280;4667;42.726;23.252;2022-08-03T03:03:32;95229.63;;;17.66;nan
9261;BME280;4667;42.726;23.252;2022-08-03T03:06:01;95236.66;;;17.67;nan
9261;BME280;4667;42.726;23.252;2022-08-03T03:08:29;95239.28;;;17.70;nan
9261;BME280;4667;42.726;23.252;2022-08-03T03:10:58;95253.22;;;17.63;nan
9261;BME280;4667;42.726;23.252;2022-08-03T03:13:27;95245.41;;;17.62;nan
9261;BME280;4667;42.726;23.252;2022-08-03T03:15:56;95245.41;;;17.62;nan
9261;BME280;4667;42.726;23.252;2022-08-03T03:18:26;95243.16;;;17.57;nan
9261;BME280;4667;42.726;23.252;2022-08-03T03:20:54;95251.81;;;17.55;nan
9261;BME280;4667;42.726;23.252;2022-08-03T03:23:22;95251.63;;;17.46;nan
9261;BME280;4667;42.726;23.252;2022-08-03T03:25:51;95259.97;;;17.42;nan
9261;BME280;4667;42.726;23.252;2022-08-03T03:28:20;95253.03;;;17.38;nan
9261;BME280;4667;42.726;23.252;2022-08-03T03:30:47;95261.31;;;17.34;nan
9261;BME280;4667;42.726;23.252;2022-08-03T03:33:14;95265.28;;;17.33;nan
9261;BME280;4667;42.726;23.252;2022-08-03T03:35:41;95267.78;;;17.28;nan
9261;BME280;4667;42.726;23.252;2022-08-03T03:38:10;95264.75;;;17.22;nan
9261;BME280;4667;42.726;23.252;2022-08-03T03:40:37;95263.66;;;17.20;nan
9261;BME280;4667;42.726;23.252;2022-08-03T03:43:08;95265.72;;;17.16;nan
9261;BME280;4667;42.726;23.252;2022-08-03T03:45:35;95275.13;;;17.14;nan
9261;BME280;4667;42.726;23.252;2022-08-03T03:48:04;95277.94;;;17.11;nan
9261;BME280;4667;42.726;23.252;2022-08-03T03:50:32;95284.63;;;17.10;nan
9261;BME280;4667;42.726;23.252;2022-08-03T03:52:59;95282.63;;;17.10;nan
9261;BME280;4667;42.726;23.252;2022-08-03T03:55:27;95280.88;;;17.04;nan
9261;BME280;4667;42.726;23.252;2022-08-03T03:57:54;95282.72;;;17.07;nan
9261;BME280;4667;42.726;23.252;2022-08-03T04:00:22;95282.31;;;17.08;nan
9261;BME280;4667;42.726;23.252;2022-08-03T04:02:49;95284.63;;;17.10;nan
9261;BME280;4667;42.726;23.252;2022-08-03T04:05:16;95280.00;;;17.07;nan
9261;BME280;4667;42.726;23.252;2022-08-03T04:08:02;95280.25;;;17.12;nan
9261;BME280;4667;42.726;23.252;2022-08-03T04:11:02;95281.03;;;17.13;nan
9261;BME280;4667;42.726;23.252;2022-08-03T04:13:36;95286.41;;;17.17;nan
9261;BME280;4667;42.726;23.252;2022-08-03T04:16:06;95278.19;;;17.17;nan
9261;BME280;4667;42.726;23.252;2022-08-03T04:18:36;95280.66;;;17.11;nan
9261;BME280;4667;42.726;23.252;2022-08-03T04:21:08;95283.66;;;17.17;nan
9261;BME280;4667;42.726;23.252;2022-08-03T04:23:40;95275.72;;;17.22;nan
9261;BME280;4667;42.726;23.252;2022-08-03T04:26:10;95275.63;;;17.26;nan
9261;BME280;4667;42.726;23.252;2022-08-03T04:28:38;95283.31;;;17.31;nan
9261;BME280;4667;42.726;23.252;2022-08-03T04:31:07;95277.69;;;17.38;nan
9261;BME280;4667;42.726;23.252;2022-08-03T04:33:36;95281.03;;;17.45;nan
9261;BME280;4667;42.726;23.252;2022-08-03T04:36:06;95277.84;;;17.47;nan
9261;BME280;4667;42.726;23.252;2022-08-03T04:38:36;95283.31;;;17.47;nan
9261;BME280;4667;42.726;23.252;2022-08-03T04:41:05;95288.19;;;17.55;nan
9261;BME280;4667;42.726;23.252;2022-08-03T04:43:33;95280.06;;;17.68;nan
9261;BME280;4667;42.726;23.252;2022-08-03T04:46:01;95282.28;;;17.73;nan
9261;BME280;4667;42.726;23.252;2022-08-03T04:48:31;95290.41;;;17.77;nan
9261;BME280;4667;42.726;23.252;2022-08-03T04:50:58;95292.72;;;17.78;nan
9261;BME280;4667;42.726;23.252;2022-08-03T04:53:28;95302.38;;;17.83;nan
9261;BME280;4667;42.726;23.252;2022-08-03T04:56:02;95311.72;;;17.85;nan
9261;BME280;4667;42.726;23.252;2022-08-03T04:58:29;95309.63;;;17.89;nan
9261;BME280;4667;42.726;23.252;2022-08-03T05:00:56;95303.63;;;17.94;nan
9261;BME280;4667;42.726;23.252;2022-08-03T05:03:23;95310.34;;;18.06;nan
9261;BME280;4667;42.726;23.252;2022-08-03T05:05:51;95322.97;;;18.04;nan
9261;BME280;4667;42.726;23.252;2022-08-03T05:08:18;95311.72;;;18.14;nan
9261;BME280;4667;42.726;23.252;2022-08-03T05:10:45;95309.41;;;18.13;nan
9261;BME280;4667;42.726;23.252;2022-08-03T05:13:12;95310.09;;;18.17;nan
9261;BME280;4667;42.726;23.252;2022-08-03T05:15:40;95316.06;;;18.12;nan
9261;BME280;4667;42.726;23.252;2022-08-03T05:18:07;95314.75;;;18.04;nan
9261;BME280;4667;42.726;23.252;2022-08-03T05:20:33;95308.44;;;18.19;nan
9261;BME280;4667;42.726;23.252;2022-08-03T05:23:01;95317.44;;;18.20;nan
9261;BME280;4667;42.726;23.252;2022-08-03T05:25:29;95323.69;;;18.20;nan
9261;BME280;4667;42.726;23.252;2022-08-03T05:27:55;95328.78;;;18.34;nan
9261;BME280;4667;42.726;23.252;2022-08-03T05:30:22;95327.78;;;18.41;nan
9261;BME280;4667;42.726;23.252;2022-08-03T05:32:49;95328.50;;;18.45;nan
9261;BME280;4667;42.726;23.252;2022-08-03T05:35:16;95332.38;;;18.60;nan
9261;BME280;4667;42.726;23.252;2022-08-03T05:37:43;95331.84;;;18.65;nan
9261;BME280;4667;42.726;23.252;2022-08-03T05:40:12;95332.53;;;18.82;nan
9261;BME280;4667;42.726;23.252;2022-08-03T05:42:39;95328.56;;;18.83;nan
9261;BME280;4667;42.726;23.252;2022-08-03T05:45:06;95328.38;;;19.03;nan
9261;BME280;4667;42.726;23.252;2022-08-03T05:47:39;95334.09;;;19.08;nan
9261;BME280;4667;42.726;23.252;2022-08-03T05:50:09;95330.56;;;19.21;nan
9261;BME280;4667;42.726;23.252;2022-08-03T05:52:35;95327.59;;;19.40;nan
9261;BME280;4667;42.726;23.252;2022-08-03T05:55:03;95327.91;;;19.55;nan
9261;BME280;4667;42.726;23.252;2022-08-03T05:57:31;95328.59;;;19.59;nan
9261;BME280;4667;42.726;23.252;2022-08-03T05:59:58;95328.22;;;19.70;nan
9261;BME280;4667;42.726;23.252;2022-08-03T06:02:25;95322.94;;;19.75;nan
9261;BME280;4667;42.726;23.252;2022-08-03T06:04:52;95322.13;;;19.87;nan
9261;BME280;4667;42.726;23.252;2022-08-03T06:07:19;95327.63;;;19.87;nan
9261;BME280;4667;42.726;23.252;2022-08-03T06:09:46;95330.53;;;20.06;nan
9261;BME280;4667;42.726;23.252;2022-08-03T06:12:13;95329.84;;;20.14;nan
9261;BME280;4667;42.726;23.252;2022-08-03T06:14:41;95328.38;;;20.35;nan
9261;BME280;4667;42.726;23.252;2022-08-03T06:17:07;95329.25;;;20.54;nan
9261;BME280;4667;42.726;23.252;2022-08-03T06:19:34;95332.31;;;20.56;nan
9261;BME280;4667;42.726;23.252;2022-08-03T06:22:01;95327.06;;;20.70;nan
9261;BME280;4667;42.726;23.252;2022-08-03T06:24:28;95327.94;;;20.89;nan
9261;BME280;4667;42.726;23.252;2022-08-03T06:26:55;95332.41;;;20.96;nan
9261;BME280;4667;42.726;23.252;2022-08-03T06:29:21;95337.47;;;20.97;nan
9261;BME280;4667;42.726;23.252;2022-08-03T06:31:50;95336.56;;;21.00;nan
9261;BME280;4667;42.726;23.252;2022-08-03T06:34:17;95329.69;;;21.05;nan
9261;BME280;4667;42.726;23.252;2022-08-03T06:36:43;95336.69;;;20.97;nan
9261;BME280;4667;42.726;23.252;2022-08-03T06:39:12;95340.38;;;21.25;nan
9261;BME280;4667;42.726;23.252;2022-08-03T06:41:39;95331.84;;;21.32;nan
9261;BME280;4667;42.726;23.252;2022-08-03T06:44:06;95326.50;;;21.46;nan
9261;BME280;4667;42.726;23.252;2022-08-03T06:46:33;95323.28;;;21.39;nan
9261;BME280;4667;42.726;23.252;2022-08-03T06:49:01;95328.66;;;21.51;nan
9261;BME280;4667;42.726;23.252;2022-08-03T06:51:28;95320.13;;;21.68;nan
9261;BME280;4667;42.726;23.252;2022-08-03T06:53:55;95325.97;;;21.79;nan
9261;BME280;4667;42.726;23.252;2022-08-03T06:56:22;95320.97;;;21.95;nan
9261;BME280;4667;42.726;23.252;2022-08-03T06:58:49;95326.19;;;22.03;nan
9261;BME280;4667;42.726;23.252;2022-08-03T07:01:15;95312.09;;;22.19;nan
9261;BME280;4667;42.726;23.252;2022-08-03T07:03:42;95324.78;;;22.34;nan
9261;BME280;4667;42.726;23.252;2022-08-03T07:06:10;95315.41;;;22.59;nan
9261;BME280;4667;42.726;23.252;2022-08-03T07:08:37;95323.56;;;22.72;nan
9261;BME280;4667;42.726;23.252;2022-08-03T07:11:04;95314.50;;;22.81;nan
9261;BME280;4667;42.726;23.252;2022-08-03T07:13:32;95319.25;;;22.80;nan
9261;BME280;4667;42.726;23.252;2022-08-03T07:15:59;95321.25;;;22.79;nan
9261;BME280;4667;42.726;23.252;2022-08-03T07:18:25;95326.13;;;22.94;nan
9261;BME280;4667;42.726;23.252;2022-08-03T07:20:52;95320.63;;;22.85;nan
9261;BME280;4667;42.726;23.252;2022-08-03T07:23:20;95321.00;;;23.10;nan
9261;BME280;4667;42.726;23.252;2022-08-03T07:25:47;95324.59;;;23.35;nan
9261;BME280;4667;42.726;23.252;2022-08-03T07:28:15;95320.50;;;23.54;nan
9261;BME280;4667;42.726;23.252;2022-08-03T07:30:41;95324.25;;;23.75;nan
9261;BME280;4667;42.726;23.252;2022-08-03T07:33:08;95323.25;;;23.87;nan
9261;BME280;4667;42.726;23.252;2022-08-03T07:35:35;95321.91;;;24.06;nan
9261;BME280;4667;42.726;23.252;2022-08-03T07:38:02;95321.34;;;24.17;nan
9261;BME280;4667;42.726;23.252;2022-08-03T07:40:30;95316.25;;;24.39;nan
9261;BME280;4667;42.726;23.252;2022-08-03T07:42:57;95319.44;;;24.47;nan
9261;BME280;4667;42.726;23.252;2022-08-03T07:45:23;95315.69;;;24.50;nan
9261;BME280;4667;42.726;23.252;2022-08-03T07:47:50;95321.63;;;24.43;nan
9261;BME280;4667;42.726;23.252;2022-08-03T07:50:17;95324.75;;;24.35;nan
9261;BME280;4667;42.726;23.252;2022-08-03T07:52:44;95320.78;;;24.51;nan
9261;BME280;4667;42.726;23.252;2022-08-03T07:55:14;95318.97;;;24.63;nan
9261;BME280;4667;42.726;23.252;2022-08-03T07:57:43;95311.44;;;24.63;nan
9261;BME280;4667;42.726;23.252;2022-08-03T08:00:13;95321.00;;;24.77;nan
9261;BME280;4667;42.726;23.252;2022-08-03T08:02:41;95318.03;;;24.66;nan
9261;BME280;4667;42.726;23.252;2022-08-03T08:05:09;95315.66;;;24.88;nan
9261;BME280;4667;42.726;23.252;2022-08-03T08:07:37;95314.59;;;25.15;nan
9261;BME280;4667;42.726;23.252;2022-08-03T08:10:05;95321.09;;;25.12;nan
9261;BME280;4667;42.726;23.252;2022-08-03T08:12:33;95319.44;;;25.35;nan
9261;BME280;4667;42.726;23.252;2022-08-03T08:15:01;95324.69;;;25.62;nan
9261;BME280;4667;42.726;23.252;2022-08-03T08:17:28;95330.31;;;25.88;nan
9261;BME280;4667;42.726;23.252;2022-08-03T08:19:54;95320.31;;;26.16;nan
9261;BME280;4667;42.726;23.252;2022-08-03T08:22:22;95324.19;;;26.39;nan
9261;BME280;4667;42.726;23.252;2022-08-03T08:24:48;95322.75;;;26.49;nan
9261;BME280;4667;42.726;23.252;2022-08-03T08:27:15;95322.28;;;26.76;nan
9261;BME280;4667;42.726;23.252;2022-08-03T08:29:42;95322.88;;;26.86;nan
9261;BME280;4667;42.726;23.252;2022-08-03T08:32:10;95316.81;;;26.88;nan
9261;BME280;4667;42.726;23.252;2022-08-03T08:34:39;95314.59;;;26.66;nan
9261;BME280;4667;42.726;23.252;2022-08-03T08:37:05;95313.72;;;26.80;nan
9261;BME280;4667;42.726;23.252;2022-08-03T08:39:32;95317.50;;;27.34;nan
9261;BME280;4667;42.726;23.252;2022-08-03T08:41:59;95308.66;;;28.15;nan
9261;BME280;4667;42.726;23.252;2022-08-03T08:44:26;95313.22;;;29.00;nan
9261;BME280;4667;42.726;23.252;2022-08-03T08:46:54;95298.72;;;29.68;nan
9261;BME280;4667;42.726;23.252;2022-08-03T08:49:25;95308.56;;;30.08;nan
9261;BME280;4667;42.726;23.252;2022-08-03T08:51:54;95298.25;;;30.44;nan
9261;BME280;4667;42.726;23.252;2022-08-03T08:54:22;95302.03;;;31.29;nan
9261;BME280;4667;42.726;23.252;2022-08-03T08:56:49;95303.94;;;31.45;nan
9261;BME280;4667;42.726;23.252;2022-08-03T08:59:17;95301.44;;;32.38;nan
9261;BME280;4667;42.726;23.252;2022-08-03T09:01:44;95294.84;;;32.17;nan
9261;BME280;4667;42.726;23.252;2022-08-03T09:04:11;95292.19;;;33.18;nan
9261;BME280;4667;42.726;23.252;2022-08-03T09:06:39;95285.75;;;34.08;nan
9261;BME280;4667;42.726;23.252;2022-08-03T09:09:06;95279.19;;;34.66;nan
9261;BME280;4667;42.726;23.252;2022-08-03T09:11:33;95278.41;;;35.12;nan
9261;BME280;4667;42.726;23.252;2022-08-03T09:14:00;95278.69;;;35.22;nan
9261;BME280;4667;42.726;23.252;2022-08-03T09:16:27;95277.59;;;35.46;nan
9261;BME280;4667;42.726;23.252;2022-08-03T09:18:54;95277.09;;;35.76;nan
9261;BME280;4667;42.726;23.252;2022-08-03T09:21:22;95283.28;;;35.12;nan
9261;BME280;4667;42.726;23.252;2022-08-03T09:23:52;95273.75;;;35.56;nan
9261;BME280;4667;42.726;23.252;2022-08-03T09:26:21;95284.59;;;36.01;nan
9261;BME280;4667;42.726;23.252;2022-08-03T09:28:58;95282.25;;;35.85;nan
9261;BME280;4667;42.726;23.252;2022-08-03T09:31:30;95272.00;;;36.31;nan
9261;BME280;4667;42.726;23.252;2022-08-03T09:33:59;95276.81;;;36.59;nan
9261;BME280;4667;42.726;23.252;2022-08-03T09:36:37;95272.22;;;36.84;nan
9261;BME280;4667;42.726;23.252;2022-08-03T09:39:06;95275.91;;;37.15;nan
9261;BME280;4667;42.726;23.252;2022-08-03T09:41:36;95275.34;;;37.16;nan
9261;BME280;4667;42.726;23.252;2022-08-03T09:44:03;95273.03;;;36.49;nan
9261;BME280;4667;42.726;23.252;2022-08-03T09:46:30;95277.88;;;36.84;nan
9261;BME280;4667;42.726;23.252;2022-08-03T09:49:10;95276.75;;;36.44;nan
9261;BME280;4667;42.726;23.252;2022-08-03T09:51:37;95273.19;;;36.43;nan
9261;BME280;4667;42.726;23.252;2022-08-03T09:54:06;95266.13;;;36.65;nan
9261;BME280;4667;42.726;23.252;2022-08-03T09:56:38;95270.56;;;36.96;nan
9261;BME280;4667;42.726;23.252;2022-08-03T09:59:05;95269.50;;;37.14;nan
9261;BME280;4667;42.726;23.252;2022-08-03T10:01:32;95276.69;;;37.61;nan
9261;BME280;4667;42.726;23.252;2022-08-03T10:03:59;95270.66;;;37.72;nan
9261;BME280;4667;42.726;23.252;2022-08-03T10:06:26;95264.44;;;37.43;nan
9261;BME280;4667;42.726;23.252;2022-08-03T10:09:06;95260.09;;;37.35;nan
9261;BME280;4667;42.726;23.252;2022-08-03T10:11:33;95256.50;;;37.11;nan
9261;BME280;4667;42.726;23.252;2022-08-03T10:14:02;95259.50;;;37.06;nan
9261;BME280;4667;42.726;23.252;2022-08-03T10:16:33;95250.72;;;36.66;nan
9261;BME280;4667;42.726;23.252;2022-08-03T10:19:01;95253.88;;;37.21;nan
9261;BME280;4667;42.726;23.252;2022-08-03T10:21:31;95248.22;;;37.13;nan
9261;BME280;4667;42.726;23.252;2022-08-03T10:24:01;95243.41;;;36.27;nan
9261;BME280;4667;42.726;23.252;2022-08-03T10:26:32;95250.13;;;35.67;nan
9261;BME280;4667;42.726;23.252;2022-08-03T10:29:02;95240.16;;;35.38;nan
9261;BME280;4667;42.726;23.252;2022-08-03T10:31:34;95247.47;;;34.65;nan
9261;BME280;4667;42.726;23.252;2022-08-03T10:34:01;95247.22;;;34.16;nan
9261;BME280;4667;42.726;23.252;2022-08-03T10:36:31;95243.03;;;33.96;nan
9261;BME280;4667;42.726;23.252;2022-08-03T10:38:59;95247.19;;;33.50;nan
9261;BME280;4667;42.726;23.252;2022-08-03T10:41:33;95244.38;;;33.50;nan
9261;BME280;4667;42.726;23.252;2022-08-03T10:44:07;95240.22;;;33.96;nan
9261;BME280;4667;42.726;23.252;2022-08-03T10:46:36;95240.06;;;34.89;nan
9261;BME280;4667;42.726;23.252;2022-08-03T10:49:04;95234.91;;;35.42;nan
9261;BME280;4667;42.726;23.252;2022-08-03T10:51:43;95238.72;;;36.01;nan
9261;BME280;4667;42.726;23.252;2022-08-03T10:57:47;95234.44;;;36.44;nan
9261;BME280;4667;42.726;23.252;2022-08-03T11:00:15;95227.72;;;36.62;nan
9261;BME280;4667;42.726;23.252;2022-08-03T11:03:13;95226.09;;;36.30;nan
9261;BME280;4667;42.726;23.252;2022-08-03T11:05:41;95230.06;;;36.27;nan
9261;BME280;4667;42.726;23.252;2022-08-03T11:08:18;95224.88;;;36.47;nan
9261;BME280;4667;42.726;23.252;2022-08-03T11:10:49;95226.75;;;36.59;nan
9261;BME280;4667;42.726;23.252;2022-08-03T11:13:20;95224.41;;;36.86;nan
9261;BME280;4667;42.726;23.252;2022-08-03T11:15:51;95217.13;;;37.13;nan
9261;BME280;4667;42.726;23.252;2022-08-03T11:18:18;95222.41;;;37.70;nan
9261;BME280;4667;42.726;23.252;2022-08-03T11:20:47;95219.16;;;38.04;nan
9261;BME280;4667;42.726;23.252;2022-08-03T11:23:16;95214.06;;;37.95;nan
9261;BME280;4667;42.726;23.252;2022-08-03T11:26:12;95206.56;;;37.82;nan
9261;BME280;4667;42.726;23.252;2022-08-03T11:28:41;95205.91;;;38.14;nan
9261;BME280;4667;42.726;23.252;2022-08-03T11:31:45;95211.56;;;38.14;nan
9261;BME280;4667;42.726;23.252;2022-08-03T11:34:15;95200.53;;;38.41;nan
9261;BME280;4667;42.726;23.252;2022-08-03T11:39:53;95203.16;;;38.54;nan
9261;BME280;4667;42.726;23.252;2022-08-03T11:42:42;95199.53;;;38.61;nan
9261;BME280;4667;42.726;23.252;2022-08-03T11:45:13;95191.59;;;38.92;nan
9261;BME280;4667;42.726;23.252;2022-08-03T11:47:40;95183.38;;;39.53;nan
9261;BME280;4667;42.726;23.252;2022-08-03T11:50:07;95193.91;;;39.78;nan
9261;BME280;4667;42.726;23.252;2022-08-03T11:52:37;95191.81;;;39.44;nan
9261;BME280;4667;42.726;23.252;2022-08-03T11:55:12;95196.22;;;39.96;nan
9261;BME280;4667;42.726;23.252;2022-08-03T11:57:40;95195.97;;;40.02;nan
9261;BME280;4667;42.726;23.252;2022-08-03T12:00:27;95196.03;;;38.78;nan
9261;BME280;4667;42.726;23.252;2022-08-03T12:03:01;95194.25;;;38.03;nan
9261;BME280;4667;42.726;23.252;2022-08-03T12:05:42;95196.41;;;37.41;nan
9261;BME280;4667;42.726;23.252;2022-08-03T12:08:28;95195.34;;;36.63;nan
9261;BME280;4667;42.726;23.252;2022-08-03T12:10:58;95193.16;;;35.89;nan
9261;BME280;4667;42.726;23.252;2022-08-03T12:13:38;95188.41;;;34.31;nan
9261;BME280;4667;42.726;23.252;2022-08-03T12:16:06;95194.28;;;33.94;nan
9261;BME280;4667;42.726;23.252;2022-08-03T12:18:34;95190.03;;;33.35;nan
9261;BME280;4667;42.726;23.252;2022-08-03T12:21:05;95190.13;;;32.33;nan
9261;BME280;4667;42.726;23.252;2022-08-03T12:23:33;95197.69;;;32.38;nan
9261;BME280;4667;42.726;23.252;2022-08-03T12:26:01;95193.63;;;31.78;nan
9261;BME280;4667;42.726;23.252;2022-08-03T12:28:28;95187.91;;;31.16;nan
9261;BME280;4667;42.726;23.252;2022-08-03T12:30:55;95179.09;;;31.31;nan
9261;BME280;4667;42.726;23.252;2022-08-03T12:33:27;95181.19;;;30.65;nan
9261;BME280;4667;42.726;23.252;2022-08-03T12:36:05;95181.59;;;30.39;nan
9261;BME280;4667;42.726;23.252;2022-08-03T12:38:33;95175.66;;;30.59;nan
9261;BME280;4667;42.726;23.252;2022-08-03T12:41:03;95172.34;;;30.61;nan
9261;BME280;4667;42.726;23.252;2022-08-03T12:43:30;95172.84;;;30.18;nan
9261;BME280;4667;42.726;23.252;2022-08-03T12:46:10;95171.38;;;30.12;nan
9261;BME280;4667;42.726;23.252;2022-08-03T12:49:01;95178.31;;;29.88;nan
9261;BME280;4667;42.726;23.252;2022-08-03T12:51:29;95170.72;;;29.83;nan
9261;BME280;4667;42.726;23.252;2022-08-03T12:53:57;95171.50;;;30.30;nan
9261;BME280;4667;42.726;23.252;2022-08-03T12:56:25;95171.81;;;30.21;nan
9261;BME280;4667;42.726;23.252;2022-08-03T12:58:52;95168.63;;;30.00;nan
9261;BME280;4667;42.726;23.252;2022-08-03T13:01:19;95167.00;;;30.16;nan
9261;BME280;4667;42.726;23.252;2022-08-03T13:03:50;95155.91;;;30.05;nan
9261;BME280;4667;42.726;23.252;2022-08-03T13:06:20;95162.31;;;29.89;nan
9261;BME280;4667;42.726;23.252;2022-08-03T13:08:48;95158.75;;;29.88;nan
9261;BME280;4667;42.726;23.252;2022-08-03T13:11:20;95160.75;;;29.99;nan
9261;BME280;4667;42.726;23.252;2022-08-03T13:13:47;95158.31;;;29.79;nan
9261;BME280;4667;42.726;23.252;2022-08-03T13:16:14;95151.63;;;29.98;nan
9261;BME280;4667;42.726;23.252;2022-08-03T13:18:41;95146.56;;;29.97;nan
9261;BME280;4667;42.726;23.252;2022-08-03T13:21:07;95155.19;;;29.99;nan
9261;BME280;4667;42.726;23.252;2022-08-03T13:23:36;95157.28;;;29.76;nan
9261;BME280;4667;42.726;23.252;2022-08-03T13:26:02;95153.94;;;29.89;nan
9261;BME280;4667;42.726;23.252;2022-08-03T13:28:29;95158.28;;;29.84;nan
9261;BME280;4667;42.726;23.252;2022-08-03T13:30:56;95154.72;;;29.84;nan
9261;BME280;4667;42.726;23.252;2022-08-03T13:33:23;95158.97;;;30.01;nan
9261;BME280;4667;42.726;23.252;2022-08-03T13:35:50;95156.03;;;30.24;nan
9261;BME280;4667;42.726;23.252;2022-08-03T13:38:16;95150.38;;;30.35;nan
9261;BME280;4667;42.726;23.252;2022-08-03T13:40:45;95153.38;;;30.42;nan
9261;BME280;4667;42.726;23.252;2022-08-03T13:43:11;95142.44;;;30.45;nan
9261;BME280;4667;42.726;23.252;2022-08-03T13:45:38;95153.44;;;30.72;nan
9261;BME280;4667;42.726;23.252;2022-08-03T13:48:05;95143.06;;;30.67;nan
9261;BME280;4667;42.726;23.252;2022-08-03T13:50:32;95146.22;;;30.47;nan